createdAt,value
2018-10-03T00:00:46.318Z,10.00
2018-10-03T00:03:15.663Z,10.00
2018-10-03T00:05:44.090Z,10.00
2018-10-03T00:08:12.516Z,10.00
2018-10-03T00:10:40.924Z,10.00
2018-10-03T00:13:09.386Z,10.00
2018-10-03T00:15:37.781Z,10.00
2018-10-03T00:18:06.252Z,10.10
2018-10-03T00:20:34.643Z,10.20
2018-10-03T00:23:03.057Z,10.30
2018-10-03T00:25:31.462Z,10.30
2018-10-03T00:27:59.863Z,10.30
2018-10-03T00:30:28.306Z,10.10
2018-10-03T00:32:56.731Z,10.10
2018-10-03T00:35:25.154Z,10.00
2018-10-03T00:37:53.518Z,10.00
2018-10-03T00:40:21.938Z,9.90
2018-10-03T00:42:50.335Z,9.90
2018-10-03T00:45:18.736Z,9.90
2018-10-03T00:47:47.150Z,9.90
2018-10-03T00:50:15.560Z,10.00
2018-10-03T00:52:43.932Z,9.90
2018-10-03T00:55:12.362Z,10.00
2018-10-03T00:57:40.999Z,10.00
2018-10-03T01:00:09.527Z,10.00
2018-10-03T01:02:37.993Z,10.00
2018-10-03T01:05:06.764Z,10.10
2018-10-03T01:07:35.153Z,10.10
2018-10-03T01:10:03.740Z,10.10
2018-10-03T01:12:32.122Z,10.10
2018-10-03T01:15:00.527Z,10.10
2018-10-03T01:17:28.958Z,10.20
2018-10-03T01:19:57.353Z,10.20
2018-10-03T01:22:25.747Z,10.20
2018-10-03T01:24:54.370Z,10.30
2018-10-03T01:27:22.798Z,10.40
2018-10-03T01:29:51.163Z,10.40
2018-10-03T01:32:19.558Z,10.40
2018-10-03T01:34:47.960Z,10.40
2018-10-03T01:37:16.367Z,10.40
2018-10-03T01:39:44.742Z,10.40
2018-10-03T01:42:13.147Z,10.40
2018-10-03T01:44:41.591Z,10.40
2018-10-03T01:47:09.971Z,10.40
2018-10-03T01:49:38.419Z,10.30
2018-10-03T01:52:06.948Z,10.40
2018-10-03T01:54:35.309Z,10.30
2018-10-03T01:57:03.721Z,10.40
2018-10-03T01:59:32.121Z,10.40
2018-10-03T02:02:00.536Z,10.40
2018-10-03T02:04:28.937Z,10.40
2018-10-03T02:06:57.448Z,10.50
2018-10-03T02:09:25.835Z,10.40
2018-10-03T02:11:54.172Z,10.40
2018-10-03T02:14:22.601Z,10.50
2018-10-03T02:16:51.055Z,10.50
2018-10-03T02:19:19.433Z,10.50
2018-10-03T02:21:47.825Z,10.50
2018-10-03T02:24:16.211Z,10.50
2018-10-03T02:26:44.629Z,10.50
2018-10-03T02:29:13.249Z,10.60
2018-10-03T02:31:41.637Z,10.50
2018-10-03T02:34:10.146Z,10.60
2018-10-03T02:36:38.558Z,10.60
2018-10-03T02:39:07.990Z,10.60
2018-10-03T02:41:36.440Z,10.70
2018-10-03T02:44:04.819Z,10.70
2018-10-03T02:46:33.221Z,10.70
2018-10-03T02:49:02.013Z,10.70
2018-10-03T02:51:30.421Z,10.70
2018-10-03T02:53:58.818Z,10.70
2018-10-03T02:56:27.266Z,10.70
2018-10-03T02:58:55.630Z,10.70
2018-10-03T03:01:24.023Z,10.70
2018-10-03T03:03:52.411Z,10.70
2018-10-03T03:06:20.847Z,10.60
2018-10-03T03:08:49.312Z,10.70
2018-10-03T03:11:17.698Z,10.70
2018-10-03T03:13:46.112Z,10.70
2018-10-03T03:16:15.072Z,10.60
2018-10-03T03:18:43.503Z,10.50
2018-10-03T03:21:11.862Z,10.40
2018-10-03T03:23:40.327Z,10.50
2018-10-03T03:26:08.646Z,10.50
2018-10-03T03:28:37.073Z,10.50
2018-10-03T03:31:05.462Z,10.50
2018-10-03T03:33:33.856Z,10.50
2018-10-03T03:36:02.263Z,10.50
2018-10-03T03:38:30.678Z,10.50
2018-10-03T03:40:59.090Z,10.40
2018-10-03T03:43:27.523Z,10.50
2018-10-03T03:45:55.944Z,10.50
2018-10-03T03:48:24.359Z,10.50
2018-10-03T03:50:52.822Z,10.40
2018-10-03T03:53:21.194Z,10.40
2018-10-03T03:55:49.567Z,10.40
2018-10-03T03:58:18.064Z,10.40
2018-10-03T04:00:46.578Z,10.40
2018-10-03T04:03:14.983Z,10.40
2018-10-03T04:05:43.372Z,10.40
2018-10-03T04:08:11.759Z,10.40
2018-10-03T04:10:40.219Z,10.40
2018-10-03T04:13:08.612Z,10.50
2018-10-03T04:15:37.014Z,10.40
2018-10-03T04:18:05.457Z,10.50
2018-10-03T04:20:33.873Z,10.50
2018-10-03T04:23:02.274Z,10.50
2018-10-03T04:25:30.693Z,10.60
2018-10-03T04:27:59.118Z,10.60
2018-10-03T04:30:27.525Z,10.50
2018-10-03T04:32:55.943Z,10.50
2018-10-03T04:35:24.305Z,10.40
2018-10-03T04:37:52.969Z,10.30
2018-10-03T04:40:21.394Z,10.20
2018-10-03T04:42:49.766Z,10.20
2018-10-03T04:45:18.156Z,10.20
2018-10-03T04:47:46.532Z,10.20
2018-10-03T04:50:14.927Z,10.10
2018-10-03T04:52:43.348Z,10.20
2018-10-03T04:55:11.723Z,10.20
2018-10-03T04:57:40.108Z,10.20
2018-10-03T05:00:08.535Z,10.30
2018-10-03T05:02:36.930Z,10.30
2018-10-03T05:05:05.466Z,10.30
2018-10-03T05:07:33.855Z,10.30
2018-10-03T05:10:02.249Z,10.30
2018-10-03T05:12:30.595Z,10.40
2018-10-03T05:14:59.001Z,10.40
2018-10-03T05:17:27.398Z,10.50
2018-10-03T05:19:55.869Z,10.50
2018-10-03T05:22:24.276Z,10.50
2018-10-03T05:24:52.693Z,10.50
2018-10-03T05:27:21.301Z,10.60
2018-10-03T05:29:49.682Z,10.50
2018-10-03T05:32:18.096Z,10.60
2018-10-03T05:34:46.510Z,10.60
2018-10-03T05:37:14.903Z,10.60
2018-10-03T05:39:43.355Z,10.60
2018-10-03T05:42:11.731Z,10.70
2018-10-03T05:44:40.187Z,10.70
2018-10-03T05:47:08.597Z,10.70
2018-10-03T05:49:37.041Z,10.80
2018-10-03T05:52:05.454Z,10.80
2018-10-03T05:54:33.891Z,10.80
2018-10-03T05:57:02.240Z,10.80
2018-10-03T05:59:30.673Z,10.80
2018-10-03T06:01:59.077Z,10.90
2018-10-03T06:04:27.510Z,10.90
2018-10-03T06:06:55.914Z,11.00
2018-10-03T06:09:24.370Z,11.00
2018-10-03T06:11:52.789Z,11.10
2018-10-03T06:14:21.201Z,11.10
2018-10-03T06:16:50.536Z,11.20
2018-10-03T06:19:19.218Z,11.20
2018-10-03T06:21:48.002Z,11.20
2018-10-03T06:24:16.428Z,11.20
2018-10-03T06:26:44.897Z,11.20
2018-10-03T06:29:13.890Z,11.20
2018-10-03T06:31:42.422Z,11.30
2018-10-03T06:34:11.036Z,11.30
2018-10-03T06:36:39.469Z,11.20
2018-10-03T06:39:08.898Z,11.30
2018-10-03T06:41:38.281Z,11.20
2018-10-03T06:44:06.741Z,11.30
2018-10-03T06:46:35.648Z,11.30
2018-10-03T06:49:04.063Z,11.40
2018-10-03T06:51:32.612Z,11.40
2018-10-03T06:54:01.154Z,11.40
2018-10-03T06:56:29.635Z,11.40
2018-10-03T06:58:58.525Z,11.40
2018-10-03T07:01:26.942Z,11.40
2018-10-03T07:03:55.454Z,11.30
2018-10-03T07:06:23.887Z,11.30
2018-10-03T07:08:52.487Z,11.20
2018-10-03T07:11:20.921Z,11.30
2018-10-03T07:13:49.306Z,11.20
2018-10-03T07:16:18.101Z,11.20
2018-10-03T07:18:46.547Z,11.20
2018-10-03T07:21:15.061Z,11.20
2018-10-03T07:23:43.472Z,11.20
2018-10-03T07:26:11.909Z,11.10
2018-10-03T07:28:40.373Z,11.20
2018-10-03T07:31:08.824Z,11.20
2018-10-03T07:33:37.291Z,11.30
2018-10-03T07:36:05.751Z,11.20
2018-10-03T07:38:34.211Z,11.20
2018-10-03T07:41:02.649Z,11.20
2018-10-03T07:43:31.071Z,11.30
2018-10-03T07:45:59.458Z,11.30
2018-10-03T07:48:27.854Z,11.40
2018-10-03T07:50:56.304Z,11.40
2018-10-03T07:53:24.960Z,11.50
2018-10-03T07:55:53.359Z,11.50
2018-10-03T07:58:21.732Z,11.60
2018-10-03T08:00:50.167Z,11.60
2018-10-03T08:03:18.542Z,11.70
2018-10-03T08:05:46.981Z,11.70
2018-10-03T08:08:15.390Z,11.70
2018-10-03T08:10:43.855Z,11.80
2018-10-03T08:13:12.287Z,11.80
2018-10-03T08:15:40.693Z,11.80
2018-10-03T08:18:09.093Z,11.80
2018-10-03T08:20:37.526Z,11.80
2018-10-03T08:23:06.058Z,11.80
2018-10-03T08:25:38.080Z,11.80
2018-10-03T08:28:06.847Z,11.80
2018-10-03T08:30:36.670Z,11.90
2018-10-03T08:33:05.307Z,11.90
2018-10-03T08:35:33.787Z,12.00
2018-10-03T08:38:02.327Z,12.00
2018-10-03T08:40:30.964Z,12.10
2018-10-03T08:43:01.258Z,12.10
2018-10-03T08:45:29.773Z,12.20
2018-10-03T08:47:58.147Z,12.20
2018-10-03T08:50:26.612Z,12.30
2018-10-03T08:52:55.016Z,12.30
2018-10-03T08:55:23.626Z,12.40
2018-10-03T08:57:52.057Z,12.40
2018-10-03T09:00:20.535Z,12.40
2018-10-03T09:02:48.970Z,12.40
2018-10-03T09:05:17.576Z,12.50
2018-10-03T09:07:46.054Z,12.50
2018-10-03T09:10:15.413Z,12.50
2018-10-03T09:12:44.256Z,12.50
2018-10-03T09:15:13.010Z,12.50
2018-10-03T09:17:41.650Z,12.50
2018-10-03T09:20:10.076Z,12.50
2018-10-03T09:22:38.549Z,12.50
2018-10-03T09:25:07.104Z,12.60
2018-10-03T09:27:35.701Z,12.70
2018-10-03T09:30:04.398Z,12.80
2018-10-03T09:32:32.941Z,12.70
2018-10-03T09:35:01.758Z,12.70
2018-10-03T09:37:30.515Z,12.70
2018-10-03T09:39:59.166Z,12.80
2018-10-03T09:42:27.863Z,12.80
2018-10-03T09:44:56.435Z,12.90
2018-10-03T09:47:25.355Z,12.90
2018-10-03T09:49:54.119Z,13.00
2018-10-03T09:52:22.787Z,13.10
2018-10-03T09:54:51.627Z,13.10
2018-10-03T09:57:20.540Z,13.10
2018-10-03T09:59:49.605Z,13.10
2018-10-03T10:02:18.400Z,13.10
2018-10-03T10:04:47.072Z,13.10
2018-10-03T10:07:16.038Z,13.20
2018-10-03T10:09:44.769Z,13.20
2018-10-03T10:12:13.687Z,13.30
2018-10-03T10:14:42.676Z,13.40
2018-10-03T10:17:12.119Z,13.50
2018-10-03T10:19:41.191Z,13.60
2018-10-03T10:22:10.043Z,13.70
2018-10-03T10:24:39.168Z,13.90
2018-10-03T10:27:08.638Z,14.00
2018-10-03T10:29:37.785Z,14.00
2018-10-03T10:32:07.406Z,14.00
2018-10-03T10:34:36.670Z,14.10
2018-10-03T10:37:06.117Z,14.20
2018-10-03T10:39:35.427Z,14.20
2018-10-03T10:42:05.029Z,14.20
2018-10-03T10:44:34.397Z,14.20
2018-10-03T10:47:03.321Z,14.20
2018-10-03T10:49:32.290Z,14.10
2018-10-03T10:52:01.324Z,14.00
2018-10-03T10:54:30.320Z,14.00
2018-10-03T10:56:58.981Z,14.00
2018-10-03T10:59:27.612Z,14.10
2018-10-03T11:01:56.914Z,14.20
2018-10-03T11:04:26.454Z,14.40
2018-10-03T11:06:54.960Z,14.30
2018-10-03T11:09:23.390Z,14.30
2018-10-03T11:11:51.939Z,14.30
2018-10-03T11:14:20.392Z,14.40
2018-10-03T11:16:49.260Z,14.40
2018-10-03T11:19:17.742Z,14.40
2018-10-03T11:21:46.175Z,14.30
2018-10-03T11:24:14.817Z,14.30
2018-10-03T11:26:43.072Z,14.40
2018-10-03T11:29:11.536Z,14.50
2018-10-03T11:31:39.960Z,14.50
2018-10-03T11:34:08.375Z,14.50
2018-10-03T11:36:36.826Z,14.30
2018-10-03T11:39:07.444Z,14.30
2018-10-03T11:41:36.162Z,14.20
2018-10-03T11:44:04.666Z,14.10
2018-10-03T11:46:33.338Z,14.10
2018-10-03T11:49:01.750Z,14.20
2018-10-03T11:51:30.131Z,14.10
2018-10-03T11:53:58.523Z,14.20
2018-10-03T11:56:26.950Z,14.20
2018-10-03T11:58:55.367Z,14.20
2018-10-03T12:01:23.734Z,14.30
2018-10-03T12:03:52.211Z,14.40
2018-10-03T12:06:20.730Z,14.50
2018-10-03T12:08:49.199Z,14.50
2018-10-03T12:11:17.587Z,14.50
2018-10-03T12:13:46.052Z,14.50
2018-10-03T12:16:14.400Z,14.40
2018-10-03T12:18:42.854Z,14.40
2018-10-03T12:21:11.405Z,14.30
2018-10-03T12:23:39.921Z,14.30
2018-10-03T12:26:08.380Z,14.20
2018-10-03T12:28:36.815Z,14.20
2018-10-03T12:31:05.376Z,14.20
2018-10-03T12:33:33.811Z,14.20
2018-10-03T12:36:02.240Z,14.20
2018-10-03T12:38:31.554Z,14.30
2018-10-03T12:41:00.154Z,14.30
2018-10-03T12:43:28.589Z,14.30
2018-10-03T12:45:57.035Z,14.30
2018-10-03T12:48:25.497Z,14.30
2018-10-03T12:50:53.942Z,14.30
2018-10-03T12:53:22.380Z,14.30
2018-10-03T12:55:50.829Z,14.20
2018-10-03T12:58:19.731Z,14.20
2018-10-03T13:00:48.302Z,14.20
2018-10-03T13:03:17.674Z,14.20
2018-10-03T13:05:46.074Z,14.20
2018-10-03T13:08:14.526Z,14.20
2018-10-03T13:10:42.971Z,14.20
2018-10-03T13:13:11.410Z,14.20
2018-10-03T13:15:39.837Z,14.20
2018-10-03T13:18:08.330Z,14.20
2018-10-03T13:20:36.753Z,14.20
2018-10-03T13:23:05.220Z,14.20
2018-10-03T13:25:33.967Z,14.30
2018-10-03T13:28:02.442Z,14.40
2018-10-03T13:30:30.908Z,14.50
2018-10-03T13:32:59.586Z,14.50
2018-10-03T13:35:28.096Z,14.50
2018-10-03T13:37:56.529Z,14.50
2018-10-03T13:40:24.981Z,14.40
2018-10-03T13:42:53.497Z,14.40
2018-10-03T13:45:21.949Z,14.40
2018-10-03T13:50:12.304Z,14.40
2018-10-03T13:52:40.838Z,14.30
2018-10-03T13:55:09.402Z,14.40
2018-10-03T13:57:38.021Z,14.40
2018-10-03T14:00:07.118Z,14.50
2018-10-03T14:02:35.641Z,14.50
2018-10-03T14:05:04.259Z,14.50
2018-10-03T14:07:32.832Z,14.40
2018-10-03T14:10:01.538Z,14.50
2018-10-03T14:12:30.198Z,14.50
2018-10-03T14:14:59.103Z,14.60
2018-10-03T14:17:28.003Z,14.60
2018-10-03T14:19:56.739Z,14.70
2018-10-03T14:22:25.783Z,14.70
2018-10-03T14:24:54.575Z,14.80
2018-10-03T14:27:23.244Z,14.80
2018-10-03T14:29:52.521Z,14.90
2018-10-03T14:32:21.223Z,14.90
2018-10-03T14:34:50.246Z,15.10
2018-10-03T14:37:19.330Z,15.20
2018-10-03T14:39:48.556Z,15.20
2018-10-03T14:42:17.878Z,15.30
2018-10-03T14:44:47.034Z,15.30
2018-10-03T14:47:15.982Z,15.30
2018-10-03T14:49:44.829Z,15.20
2018-10-03T14:52:13.781Z,15.20
2018-10-03T14:54:42.594Z,15.20
2018-10-03T14:57:11.173Z,15.20
2018-10-03T14:59:39.747Z,15.20
2018-10-03T15:02:08.526Z,15.20
2018-10-03T15:04:37.158Z,15.20
2018-10-03T15:07:05.995Z,15.00
2018-10-03T15:09:37.242Z,15.00
2018-10-03T15:12:06.611Z,14.80
2018-10-03T15:14:35.107Z,14.80
2018-10-03T15:17:04.289Z,14.80
2018-10-03T15:19:33.177Z,14.80
2018-10-03T15:22:03.881Z,14.80
2018-10-03T15:24:33.028Z,14.80
2018-10-03T15:27:01.554Z,14.80
2018-10-03T15:29:30.117Z,14.70
2018-10-03T15:31:58.673Z,14.70
2018-10-03T15:34:27.684Z,14.70
2018-10-03T15:36:57.416Z,14.70
2018-10-03T15:39:25.881Z,14.70
2018-10-03T15:41:54.416Z,14.70
2018-10-03T15:44:22.924Z,14.70
2018-10-03T15:46:51.488Z,14.70
2018-10-03T15:49:20.178Z,14.70
2018-10-03T15:51:49.061Z,14.70
2018-10-03T15:54:17.649Z,14.80
2018-10-03T15:56:46.204Z,14.80
2018-10-03T15:59:14.788Z,14.80
2018-10-03T16:01:43.794Z,14.80
2018-10-03T16:04:12.352Z,14.80
2018-10-03T16:06:40.889Z,14.80
2018-10-03T16:09:10.551Z,14.80
2018-10-03T16:11:39.687Z,14.80
2018-10-03T16:14:08.333Z,14.80
2018-10-03T16:16:36.921Z,14.80
2018-10-03T16:19:05.902Z,14.70
2018-10-03T16:21:34.387Z,14.70
2018-10-03T16:24:02.967Z,14.70
2018-10-03T16:26:31.589Z,14.80
2018-10-03T16:29:00.203Z,14.80
2018-10-03T16:31:28.971Z,14.70
2018-10-03T16:33:57.724Z,14.60
2018-10-03T16:36:26.397Z,14.60
2018-10-03T16:38:55.328Z,14.50
2018-10-03T16:41:23.984Z,14.50
2018-10-03T16:43:52.535Z,14.60
2018-10-03T16:46:21.146Z,14.60
2018-10-03T16:48:49.626Z,14.50
2018-10-03T16:51:18.192Z,14.60
2018-10-03T16:53:47.722Z,14.50
2018-10-03T16:56:16.307Z,14.40
2018-10-03T16:58:44.873Z,14.40
2018-10-03T17:01:13.517Z,14.20
2018-10-03T17:03:42.038Z,14.20
2018-10-03T17:06:10.578Z,14.20
2018-10-03T17:08:39.378Z,14.20
2018-10-03T17:11:07.887Z,14.20
2018-10-03T17:14:47.083Z,14.20
2018-10-03T17:17:15.637Z,14.10
2018-10-03T17:19:44.162Z,14.10
2018-10-03T17:22:13.034Z,14.10
2018-10-03T17:24:41.898Z,14.10
2018-10-03T17:27:10.488Z,14.00
2018-10-03T17:29:38.978Z,14.00
2018-10-03T17:32:07.781Z,14.00
2018-10-03T17:34:36.282Z,13.90
2018-10-03T17:37:04.857Z,13.90
2018-10-03T17:39:33.400Z,13.80
2018-10-03T17:42:02.057Z,13.70
2018-10-03T17:44:30.670Z,13.60
2018-10-03T17:46:59.290Z,13.50
2018-10-03T17:49:27.908Z,13.50
2018-10-03T17:51:56.609Z,13.50
2018-10-03T17:54:25.184Z,13.40
2018-10-03T17:56:53.688Z,13.20
2018-10-03T17:59:22.852Z,12.90
2018-10-03T18:01:54.516Z,12.70
2018-10-03T18:04:23.081Z,12.60
2018-10-03T18:06:51.695Z,12.50
2018-10-03T18:09:20.903Z,12.50
2018-10-03T18:11:49.533Z,12.40
2018-10-03T18:14:18.364Z,12.40
2018-10-03T18:16:47.307Z,12.40
2018-10-03T18:19:15.979Z,12.30
2018-10-03T18:21:44.980Z,12.20
2018-10-03T18:24:13.786Z,12.20
2018-10-03T18:26:42.744Z,12.10
2018-10-03T18:29:11.555Z,12.00
2018-10-03T18:31:40.721Z,11.90
2018-10-03T18:34:09.766Z,11.90
2018-10-03T18:36:38.792Z,11.90
2018-10-03T18:39:09.026Z,11.90
2018-10-03T18:41:38.515Z,11.90
2018-10-03T18:44:07.689Z,11.90
2018-10-03T18:46:36.684Z,11.90
2018-10-03T18:49:05.679Z,11.90
2018-10-03T18:51:34.630Z,12.00
2018-10-03T18:54:03.518Z,11.90
2018-10-03T18:56:32.396Z,11.80
2018-10-03T18:59:01.353Z,11.70
2018-10-03T19:01:30.427Z,11.80
2018-10-03T19:03:59.291Z,11.80
2018-10-03T19:06:28.275Z,11.80
2018-10-03T19:08:57.223Z,11.80
2018-10-03T19:11:26.033Z,11.80
2018-10-03T19:13:54.871Z,11.90
2018-10-03T19:16:23.765Z,11.80
2018-10-03T19:18:53.193Z,11.70
2018-10-03T19:21:22.313Z,11.70
2018-10-03T19:23:51.434Z,11.60
2018-10-03T19:26:20.427Z,11.70
2018-10-03T19:28:49.600Z,11.70
2018-10-03T19:31:19.034Z,11.80
2018-10-03T19:33:48.017Z,11.80
2018-10-03T19:36:17.394Z,11.70
2018-10-03T19:38:46.330Z,11.60
2018-10-03T19:41:15.095Z,11.60
2018-10-03T19:43:43.786Z,11.40
2018-10-03T19:46:12.305Z,11.30
2018-10-03T19:48:41.156Z,11.40
2018-10-03T19:51:10.254Z,11.40
2018-10-03T19:53:39.043Z,11.40
2018-10-03T19:56:07.873Z,11.30
2018-10-03T19:58:36.472Z,11.30
2018-10-03T20:01:05.084Z,11.30
2018-10-03T20:03:33.786Z,11.30
2018-10-03T20:06:02.221Z,11.40
2018-10-03T20:08:31.103Z,11.50
2018-10-03T20:10:59.601Z,11.60
2018-10-03T20:13:28.159Z,11.70
2018-10-03T20:15:56.815Z,11.70
2018-10-03T20:18:25.388Z,11.80
2018-10-03T20:20:54.034Z,11.80
2018-10-03T20:23:23.314Z,11.70
2018-10-03T20:25:51.880Z,11.70
2018-10-03T20:28:20.438Z,11.70
2018-10-03T20:30:49.054Z,11.90
2018-10-03T20:33:17.658Z,12.00
2018-10-03T20:35:46.197Z,12.20
2018-10-03T20:38:14.738Z,12.30
2018-10-03T20:40:43.360Z,12.30
2018-10-03T20:43:12.437Z,12.10
2018-10-03T20:45:41.209Z,11.90
2018-10-03T20:48:10.813Z,12.00
2018-10-03T20:50:39.991Z,12.10
2018-10-03T20:53:09.033Z,12.20
2018-10-03T20:55:38.004Z,12.30
2018-10-03T20:58:06.928Z,12.20
2018-10-03T21:00:35.433Z,12.20
2018-10-03T21:03:04.053Z,12.00
2018-10-03T21:05:32.712Z,12.00
2018-10-03T21:08:01.378Z,12.00
2018-10-03T21:10:29.904Z,12.00
2018-10-03T21:12:58.424Z,12.00
2018-10-03T21:15:26.950Z,12.00
2018-10-03T21:17:55.405Z,12.00
2018-10-03T21:20:23.949Z,12.00
2018-10-03T21:22:52.487Z,12.10
2018-10-03T21:25:21.064Z,12.20
2018-10-03T21:27:49.580Z,12.20
2018-10-03T21:30:18.173Z,12.30
2018-10-03T21:32:46.671Z,12.40
2018-10-03T21:35:15.168Z,12.40
2018-10-03T21:37:43.705Z,12.50
2018-10-03T21:40:12.292Z,12.70
2018-10-03T21:42:40.849Z,12.70
2018-10-03T21:45:09.356Z,12.70
2018-10-03T21:47:37.832Z,12.70
2018-10-03T21:50:05.973Z,12.70
2018-10-03T21:52:34.532Z,12.60
2018-10-03T21:55:03.585Z,12.70
2018-10-03T21:57:32.165Z,12.60
2018-10-03T22:00:00.691Z,12.60
2018-10-03T22:02:29.184Z,12.60
2018-10-03T22:04:57.716Z,12.70
2018-10-03T22:07:26.218Z,12.70
2018-10-03T22:09:54.835Z,12.80
2018-10-03T22:12:23.351Z,12.70
2018-10-03T22:14:51.860Z,12.70
2018-10-03T22:17:23.949Z,12.70
2018-10-03T22:19:53.031Z,12.70
2018-10-03T22:22:21.476Z,12.70
2018-10-03T22:24:50.128Z,12.80
2018-10-03T22:27:18.617Z,12.80
2018-10-03T22:29:47.733Z,12.90
2018-10-03T22:32:16.262Z,12.90
2018-10-03T22:34:44.733Z,12.90
2018-10-03T22:37:13.263Z,12.90
2018-10-03T22:39:42.178Z,12.90
2018-10-03T22:42:10.689Z,12.80
2018-10-03T22:44:39.285Z,12.80
2018-10-03T22:47:07.894Z,12.70
2018-10-03T22:49:36.447Z,12.70
2018-10-03T22:52:04.953Z,12.60
2018-10-03T22:54:33.654Z,12.40
2018-10-03T22:57:02.288Z,12.40
2018-10-03T22:59:30.810Z,12.40
2018-10-03T23:01:59.339Z,12.30
2018-10-03T23:04:28.205Z,12.30
2018-10-03T23:06:56.905Z,12.30
2018-10-03T23:09:25.458Z,12.30
2018-10-03T23:11:53.990Z,12.30
2018-10-03T23:14:22.538Z,12.20
2018-10-03T23:16:51.137Z,12.20
2018-10-03T23:19:19.823Z,12.20
2018-10-03T23:21:48.284Z,12.10
2018-10-03T23:24:16.840Z,12.00
2018-10-03T23:26:45.398Z,11.90
2018-10-03T23:29:13.865Z,11.80
2018-10-03T23:31:42.373Z,11.80
2018-10-03T23:34:10.854Z,11.70
2018-10-03T23:36:39.340Z,11.60
2018-10-03T23:39:10.207Z,11.50
2018-10-03T23:41:39.017Z,11.50
2018-10-03T23:44:07.564Z,11.40
2018-10-03T23:46:36.298Z,11.40
2018-10-03T23:49:05.205Z,11.30
2018-10-03T23:51:33.770Z,11.30
2018-10-03T23:54:02.678Z,11.20
2018-10-03T23:56:31.295Z,11.20
2018-10-03T23:58:59.862Z,11.00
